createdAt,value
2023-03-05T00:04:44.073Z,2.10
2023-03-05T00:09:47.242Z,2.15
2023-03-05T00:14:52.085Z,1.90
2023-03-05T00:19:57.380Z,2.08
2023-03-05T00:25:00.747Z,1.58
2023-03-05T00:30:04.914Z,1.38
2023-03-05T00:35:08.841Z,1.65
2023-03-05T00:40:12.958Z,2.03
2023-03-05T00:45:17.151Z,2.70
2023-03-05T00:50:21.380Z,2.42
2023-03-05T00:55:25.380Z,1.90
2023-03-05T01:00:29.323Z,2.67
2023-03-05T01:05:32.895Z,2.53
2023-03-05T01:10:36.644Z,2.20
2023-03-05T01:15:40.793Z,2.20
2023-03-05T01:20:44.729Z,2.08
2023-03-05T01:26:01.303Z,1.88
2023-03-05T01:31:09.358Z,1.65
2023-03-05T01:36:17.065Z,1.45
2023-03-05T01:41:21.933Z,1.25
2023-03-05T01:46:39.273Z,1.42
2023-03-05T01:52:09.944Z,1.40
2023-03-05T01:57:17.058Z,1.52
2023-03-05T02:02:24.861Z,1.40
2023-03-05T02:07:28.350Z,1.40
2023-03-05T02:12:31.597Z,1.50
2023-03-05T02:17:35.131Z,1.48
2023-03-05T02:22:38.303Z,0.90
2023-03-05T02:27:44.754Z,1.27
2023-03-05T02:32:47.830Z,1.10
2023-03-05T02:37:51.443Z,1.23
2023-03-05T02:42:54.387Z,1.20
2023-03-05T02:47:58.354Z,1.40
2023-03-05T02:53:01.722Z,1.55
2023-03-05T02:58:06.205Z,1.27
2023-03-05T03:03:09.846Z,1.23
2023-03-05T03:08:13.392Z,1.67
2023-03-05T03:13:16.917Z,1.55
2023-03-05T03:18:20.244Z,1.33
2023-03-05T03:23:23.381Z,1.50
2023-03-05T03:28:27.062Z,1.77
2023-03-05T03:33:30.035Z,1.77
2023-03-05T03:38:33.626Z,1.38
2023-03-05T03:43:37.749Z,2.17
2023-03-05T03:48:41.151Z,1.75
2023-03-05T03:53:44.158Z,1.65
2023-03-05T03:58:51.725Z,1.73
2023-03-05T04:03:56.825Z,2.10
2023-03-05T04:08:59.981Z,1.90
2023-03-05T04:14:03.711Z,2.10
2023-03-05T04:19:06.744Z,1.85
2023-03-05T04:24:10.357Z,2.55
2023-03-05T04:29:13.955Z,2.03
2023-03-05T04:34:16.917Z,1.75
2023-03-05T04:39:21.256Z,1.25
2023-03-05T04:44:26.259Z,1.08
2023-03-05T04:49:29.840Z,1.10
2023-03-05T04:54:33.145Z,1.25
2023-03-05T04:59:38.329Z,1.02
2023-03-05T05:04:45.257Z,0.70
2023-03-05T05:09:48.657Z,0.80
2023-03-05T05:14:51.624Z,1.10
2023-03-05T05:19:55.724Z,1.00
2023-03-05T05:24:59.203Z,1.08
2023-03-05T05:30:02.538Z,1.17
2023-03-05T05:35:07.256Z,1.30
2023-03-05T05:40:10.966Z,1.10
2023-03-05T05:45:14.443Z,1.05
2023-03-05T05:50:19.915Z,1.30
2023-03-05T05:55:24.400Z,1.35
2023-03-05T06:00:27.581Z,0.95
2023-03-05T06:05:31.384Z,1.10
2023-03-05T06:10:35.178Z,0.88
2023-03-05T06:15:38.387Z,0.63
2023-03-05T06:20:42.038Z,0.85
2023-03-05T06:25:45.364Z,0.88
2023-03-05T06:30:48.515Z,0.73
2023-03-05T06:35:51.551Z,1.05
2023-03-05T06:40:54.635Z,1.10
2023-03-05T06:46:06.138Z,1.30
2023-03-05T06:51:28.142Z,0.90
2023-03-05T06:56:31.292Z,0.60
2023-03-05T07:01:36.292Z,0.75
2023-03-05T07:06:40.496Z,0.80
2023-03-05T07:11:45.309Z,0.60
2023-03-05T07:16:48.909Z,0.50
2023-03-05T07:21:52.457Z,0.40
2023-03-05T07:26:55.929Z,0.60
2023-03-05T07:31:59.458Z,0.40
2023-03-05T07:37:02.684Z,0.50
2023-03-05T07:42:06.661Z,0.47
2023-03-05T07:47:25.772Z,0.57
2023-03-05T07:52:28.780Z,0.50
2023-03-05T07:57:32.281Z,1.63
2023-03-05T08:02:35.787Z,0.60
2023-03-05T08:07:39.526Z,0.50
2023-03-05T08:12:42.601Z,0.40
2023-03-05T08:17:46.237Z,0.32
2023-03-05T08:22:50.079Z,0.90
2023-03-05T08:27:55.286Z,0.40
2023-03-05T08:32:58.694Z,0.50
2023-03-05T08:38:02.169Z,0.50
2023-03-05T08:43:07.537Z,0.52
2023-03-05T08:48:11.053Z,0.55
2023-03-05T08:53:14.568Z,0.40
2023-03-05T08:58:19.110Z,0.50
2023-03-05T09:03:23.550Z,0.68
2023-03-05T09:08:27.190Z,0.73
2023-03-05T09:13:31.138Z,0.60
2023-03-05T09:18:36.988Z,0.80
2023-03-05T09:23:42.616Z,0.83
2023-03-05T09:28:47.083Z,0.80
2023-03-05T09:33:51.336Z,0.80
2023-03-05T09:38:57.755Z,1.00
2023-03-05T09:44:35.173Z,0.98
2023-03-05T09:49:58.011Z,0.75
2023-03-05T09:55:02.429Z,0.85
2023-03-05T10:00:09.932Z,1.20
2023-03-05T10:05:23.419Z,1.42
2023-03-05T10:10:33.986Z,0.95
2023-03-05T10:16:04.154Z,1.10
2023-03-05T10:21:12.814Z,0.90
2023-03-05T10:26:34.470Z,1.30
2023-03-05T10:32:17.383Z,1.30
2023-03-05T10:37:47.416Z,2.00
2023-03-05T10:43:13.040Z,1.20
2023-03-05T10:48:41.259Z,1.27
2023-03-05T10:54:02.490Z,1.77
2023-03-05T10:59:06.277Z,1.55
2023-03-05T11:04:28.771Z,1.33
2023-03-05T11:09:34.961Z,1.40
2023-03-05T11:14:43.228Z,1.05
2023-03-05T11:19:51.658Z,1.00
2023-03-05T11:25:15.024Z,1.48
2023-03-05T11:30:27.096Z,2.03
2023-03-05T11:35:35.884Z,1.77
2023-03-05T11:40:39.758Z,1.52
2023-03-05T11:45:44.516Z,1.00
2023-03-05T11:50:55.696Z,1.17
2023-03-05T11:56:06.138Z,1.33
2023-03-05T12:01:20.220Z,1.17
2023-03-05T12:06:44.590Z,1.73
2023-03-05T12:11:54.173Z,0.90
2023-03-05T12:17:02.517Z,1.80
2023-03-05T12:22:20.407Z,1.48
2023-03-05T12:27:35.525Z,1.20
2023-03-05T12:32:45.288Z,1.58
2023-03-05T12:37:59.257Z,2.33
2023-03-05T12:43:05.587Z,2.78
2023-03-05T12:48:12.925Z,1.60
2023-03-05T12:53:19.412Z,2.10
2023-03-05T12:58:34.774Z,2.92
2023-03-05T13:03:55.511Z,1.55
2023-03-05T13:09:05.625Z,1.80
2023-03-05T13:14:33.293Z,1.63
2023-03-05T13:19:36.920Z,1.73
2023-03-05T13:24:41.124Z,1.60
2023-03-05T13:29:53.880Z,1.33
2023-03-05T13:35:02.326Z,0.98
2023-03-05T13:40:21.541Z,1.20
2023-03-05T13:45:28.831Z,1.55
2023-03-05T13:50:36.215Z,1.10
2023-03-05T13:55:39.760Z,1.20
2023-03-05T14:00:43.530Z,0.95
2023-03-05T14:05:50.189Z,1.17
2023-03-05T14:10:58.430Z,1.05
2023-03-05T14:16:07.586Z,1.90
2023-03-05T14:21:12.950Z,1.40
2023-03-05T14:26:36.715Z,1.23
2023-03-05T14:32:23.503Z,1.25
2023-03-05T14:37:39.772Z,1.20
2023-03-05T14:48:00.147Z,1.50
2023-03-05T14:53:11.017Z,0.77
2023-03-05T14:58:17.830Z,1.42
2023-03-05T15:03:22.568Z,0.90
2023-03-05T15:08:32.209Z,0.80
2023-03-05T15:13:37.038Z,1.10
2023-03-05T15:18:41.733Z,0.90
2023-03-05T15:23:45.524Z,1.67
2023-03-05T15:28:49.356Z,1.30
2023-03-05T15:33:54.336Z,1.00
2023-03-05T15:38:58.927Z,1.13
2023-03-05T15:44:03.092Z,0.95
2023-03-05T15:49:08.040Z,1.38
2023-03-05T15:54:11.796Z,0.93
2023-03-05T15:59:16.035Z,0.82
2023-03-05T16:04:20.093Z,1.05
2023-03-05T16:09:24.778Z,1.00
2023-03-05T16:14:29.510Z,1.45
2023-03-05T16:19:37.353Z,1.10
2023-03-05T16:24:40.484Z,1.02
2023-03-05T16:29:44.018Z,1.38
2023-03-05T16:34:48.079Z,1.23
2023-03-05T16:39:52.466Z,1.75
2023-03-05T16:44:55.782Z,2.13
2023-03-05T16:49:59.486Z,3.08
2023-03-05T16:55:04.807Z,2.30
2023-03-05T17:00:12.029Z,2.08
2023-03-05T17:10:18.993Z,1.92
2023-03-05T17:15:23.510Z,2.88
2023-03-05T17:20:27.121Z,3.85
2023-03-05T17:25:31.688Z,5.72
2023-03-05T17:30:37.208Z,4.47
2023-03-05T17:35:42.986Z,6.10
2023-03-05T17:40:46.700Z,5.28
2023-03-05T17:45:50.296Z,5.00
2023-03-05T17:50:55.098Z,5.57
2023-03-05T17:55:59.749Z,4.47
2023-03-05T18:01:05.144Z,3.97
2023-03-05T18:06:09.392Z,4.22
2023-03-05T18:11:13.841Z,5.10
2023-03-05T18:16:18.576Z,5.47
2023-03-05T18:21:24.391Z,6.75
2023-03-05T18:26:27.580Z,9.38
2023-03-05T18:31:30.612Z,8.60
2023-03-05T18:36:33.843Z,9.38
2023-03-05T18:41:37.537Z,5.90
2023-03-05T18:46:41.716Z,7.90
2023-03-05T18:51:46.235Z,5.68
2023-03-05T18:56:49.331Z,8.15
2023-03-05T19:01:52.478Z,11.45
2023-03-05T19:06:56.292Z,7.90
2023-03-05T19:12:01.695Z,6.40
2023-03-05T19:17:05.844Z,7.32
2023-03-05T19:22:12.154Z,4.28
2023-03-05T19:27:15.887Z,4.70
2023-03-05T19:32:20.719Z,2.80
2023-03-05T19:37:24.365Z,3.17
2023-03-05T19:42:27.859Z,4.72
2023-03-05T19:47:31.358Z,3.88
2023-03-05T19:52:34.855Z,3.33
2023-03-05T19:57:38.412Z,4.32
2023-03-05T20:02:41.990Z,4.72
2023-03-05T20:07:45.250Z,4.78
2023-03-05T20:12:48.754Z,3.20
2023-03-05T20:17:59.300Z,4.45
2023-03-05T20:23:03.225Z,5.65
2023-03-05T20:28:06.873Z,5.38
2023-03-05T20:33:11.625Z,3.88
2023-03-05T20:38:22.674Z,7.43
2023-03-05T20:43:32.281Z,6.25
2023-03-05T20:48:35.576Z,9.02
2023-03-05T20:53:42.213Z,7.97
2023-03-05T20:58:47.527Z,5.83
2023-03-05T21:03:54.452Z,5.60
2023-03-05T21:08:59.317Z,6.38
2023-03-05T21:14:02.924Z,4.93
2023-03-05T21:19:06.014Z,5.80
2023-03-05T21:24:11.435Z,5.03
2023-03-05T21:29:34.810Z,3.35
2023-03-05T21:34:39.588Z,3.25
2023-03-05T21:39:44.329Z,2.70
2023-03-05T21:44:47.799Z,1.90
2023-03-05T21:49:52.151Z,2.83
2023-03-05T21:54:57.045Z,3.03
2023-03-05T22:00:00.970Z,2.90
2023-03-05T22:05:06.850Z,3.42
2023-03-05T22:10:16.199Z,3.20
2023-03-05T22:15:20.430Z,3.47
2023-03-05T22:20:23.697Z,3.47
2023-03-05T22:25:27.701Z,3.00
2023-03-05T22:30:38.461Z,1.70
2023-03-05T22:35:45.623Z,1.67
2023-03-05T22:40:50.592Z,1.90
2023-03-05T22:45:54.310Z,2.33
2023-03-05T22:50:57.778Z,2.40
2023-03-05T22:56:07.204Z,2.15
2023-03-05T23:01:16.862Z,1.83
2023-03-05T23:06:20.103Z,1.58
2023-03-05T23:11:23.174Z,1.35
2023-03-05T23:16:26.841Z,1.58
2023-03-05T23:21:29.935Z,1.95
2023-03-05T23:26:33.553Z,2.90
2023-03-05T23:31:36.668Z,3.30
2023-03-05T23:36:39.976Z,2.55
2023-03-05T23:41:43.091Z,2.03
2023-03-05T23:46:46.548Z,1.95
2023-03-05T23:51:49.561Z,2.08
2023-03-05T23:56:53.002Z,2.03
